Time;durP1;ratioP1;P1;durP2;ratioP2;P2;SDS_P1;SDS_P2;PMS_P1;PMS_P2;Temp;Humidity;BMP_temperature;BMP_pressure;BME280_temperature;BME280_humidity;BME280_pressure;Samples;Min_cycle;Max_cycle;Signal;HPM_P1;HPM_P2
2023/06/02 00:01:00;;;;;;;5.00;3.30;;;;;;;17.46;51.05;97950.38;5075065;28;20202;-81
2023/06/02 00:03:30;;;;;;;4.70;3.67;;;;;;;17.41;51.31;97946.47;5075584;28;20243;-81
2023/06/02 00:05:57;;;;;;;4.20;3.50;;;;;;;17.28;51.54;97954.84;5075748;28;20241;-81
2023/06/02 00:08:24;;;;;;;6.40;3.60;;;;;;;17.27;51.55;97947.81;5075162;28;20212;-81
2023/06/02 00:10:51;;;;;;;5.03;3.70;;;;;;;17.28;51.77;97952.19;5071308;28;20220;-80
2023/06/02 00:13:17;;;;;;;6.13;3.40;;;;;;;17.31;51.50;97945.69;5072529;28;20219;-81
2023/06/02 00:15:45;;;;;;;4.57;3.57;;;;;;;17.24;51.62;97944.63;5071382;28;20208;-81
2023/06/02 00:18:12;;;;;;;5.73;3.80;;;;;;;17.15;51.95;97949.03;5070888;28;20228;-81
2023/06/02 00:20:39;;;;;;;4.97;3.53;;;;;;;17.13;51.86;97944.84;5070673;28;20227;-81
2023/06/02 00:23:08;;;;;;;5.53;3.37;;;;;;;17.05;51.96;97945.56;5070650;28;20208;-81
2023/06/02 00:25:36;;;;;;;5.40;3.60;;;;;;;16.96;52.21;97951.81;5070797;28;20243;-81
2023/06/02 00:28:03;;;;;;;5.37;3.73;;;;;;;16.90;52.32;97949.75;5071929;28;20299;-81
2023/06/02 00:30:31;;;;;;;5.50;3.33;;;;;;;16.83;52.20;97951.31;5074817;28;20196;-81
2023/06/02 00:32:59;;;;;;;4.73;3.33;;;;;;;16.82;52.22;97949.66;5075469;28;20271;-81
2023/06/02 00:35:26;;;;;;;5.83;3.50;;;;;;;16.75;52.59;97951.22;5075283;28;20192;-81
2023/06/02 00:37:53;;;;;;;5.33;3.47;;;;;;;16.69;52.54;97954.50;5074921;28;20246;-81
2023/06/02 00:40:20;;;;;;;5.20;3.57;;;;;;;16.67;52.52;97956.47;5069921;28;20219;-80
2023/06/02 00:42:47;;;;;;;5.33;3.80;;;;;;;16.68;52.78;97952.81;5069677;28;20231;-81
2023/06/02 00:45:15;;;;;;;5.40;3.80;;;;;;;16.57;52.75;97953.00;5069992;28;20243;-81
2023/06/02 00:47:42;;;;;;;4.67;3.80;;;;;;;16.56;52.82;97961.16;5070329;28;20242;-81
2023/06/02 00:50:11;;;;;;;5.63;3.60;;;;;;;16.53;52.92;97958.78;5069755;28;20204;-81
2023/06/02 00:52:40;;;;;;;4.57;3.80;;;;;;;16.59;52.74;97958.19;5069063;28;20218;-81
2023/06/02 00:55:08;;;;;;;6.47;3.60;;;;;;;16.57;52.92;97961.00;5070011;28;20216;-81
2023/06/02 00:57:40;;;;;;;5.50;3.80;;;;;;;16.62;52.69;97958.75;5073401;28;20265;-80
2023/06/02 01:00:09;;;;;;;5.73;3.90;;;;;;;16.56;52.79;97959.34;5073341;28;20230;-81
2023/06/02 01:02:35;;;;;;;5.67;3.70;;;;;;;16.49;53.12;97960.91;5073318;28;20268;-80
2023/06/02 01:05:06;;;;;;;8.80;4.30;;;;;;;16.45;53.25;97970.19;5065646;28;20208;-81
2023/06/02 01:07:37;;;;;;;4.37;3.97;;;;;;;16.33;53.73;97967.81;5072637;28;20428;-79
2023/06/02 01:10:04;;;;;;;6.27;3.63;;;;;;;16.36;53.33;97960.38;5071656;28;20196;-81
2023/06/02 01:12:30;;;;;;;5.77;3.67;;;;;;;16.30;53.87;97963.63;5075278;28;20192;-81
2023/06/02 01:14:57;;;;;;;5.70;3.77;;;;;;;16.42;53.20;97959.81;5072102;28;20201;-81
2023/06/02 01:17:30;;;;;;;6.43;3.93;;;;;;;16.31;53.70;97972.44;5074393;28;20227;-81
2023/06/02 01:20:01;;;;;;;6.17;4.23;;;;;;;16.26;53.88;97972.03;5077314;28;20216;-81
2023/06/02 01:22:31;;;;;;;5.20;4.33;;;;;;;16.28;53.85;97976.25;5078647;28;20226;-81
2023/06/02 01:25:00;;;;;;;6.60;4.20;;;;;;;16.18;54.15;97978.13;5077244;28;20305;-80
2023/06/02 01:27:26;;;;;;;5.00;3.83;;;;;;;16.10;54.57;97980.63;5062630;28;20254;-80
2023/06/02 01:29:55;;;;;;;5.97;4.10;;;;;;;16.04;54.82;97981.22;5066608;28;20222;-79
2023/06/02 01:32:26;;;;;;;6.97;4.37;;;;;;;16.08;55.00;97976.44;5074851;28;20242;-78
2023/06/02 01:34:58;;;;;;;5.57;3.87;;;;;;;16.13;54.71;97975.03;5075716;28;20187;-80
2023/06/02 01:37:26;;;;;;;5.57;3.70;;;;;;;16.20;54.78;97967.28;5076393;28;20244;-79
2023/06/02 01:39:55;;;;;;;5.87;4.00;;;;;;;16.13;55.10;97975.03;5068996;28;20238;-80
2023/06/02 01:42:24;;;;;;;7.40;4.43;;;;;;;16.14;55.04;97967.84;5070386;28;20216;-80
2023/06/02 01:44:51;;;;;;;6.67;3.93;;;;;;;16.03;55.47;97979.53;5069992;28;20211;-80
2023/06/02 01:47:18;;;;;;;6.17;4.10;;;;;;;15.98;55.83;97985.44;5070297;28;20231;-80
2023/06/02 01:49:44;;;;;;;6.80;4.10;;;;;;;15.87;56.37;97986.44;5070712;28;20205;-81
2023/06/02 01:52:11;;;;;;;5.13;3.80;;;;;;;15.72;56.87;97987.88;5071842;28;20209;-80
2023/06/02 01:54:38;;;;;;;5.10;3.93;;;;;;;15.68;57.27;97990.94;5075210;28;20227;-81
2023/06/02 01:57:06;;;;;;;6.20;3.97;;;;;;;15.69;57.52;97981.94;5076722;28;20220;-82
2023/06/02 01:59:34;;;;;;;6.43;3.97;;;;;;;15.62;57.76;97994.16;5076456;28;20317;-81
2023/06/02 02:02:01;;;;;;;6.07;4.23;;;;;;;15.54;58.17;97997.53;5076350;28;20208;-80
2023/06/02 02:04:29;;;;;;;7.57;4.53;;;;;;;15.55;58.35;98004.56;5075390;28;20216;-79
2023/06/02 02:06:55;;;;;;;8.60;4.23;;;;;;;15.57;58.54;97999.09;5071080;28;20319;-80
2023/06/02 02:09:22;;;;;;;7.60;4.20;;;;;;;15.54;58.80;98004.69;5061911;28;20279;-80
2023/06/02 02:11:49;;;;;;;7.40;4.67;;;;;;;15.55;59.05;98003.69;5063501;28;20591;-80
2023/06/02 02:14:15;;;;;;;5.57;4.30;;;;;;;15.50;59.23;98004.13;5063160;28;20557;-79
2023/06/02 02:16:45;;;;;;;6.03;4.10;;;;;;;15.46;59.79;98013.38;5063404;28;20238;-79
2023/06/02 02:19:12;;;;;;;6.50;4.40;;;;;;;15.42;60.12;98005.78;5062288;28;20274;-80
2023/06/02 02:21:39;;;;;;;5.97;4.37;;;;;;;15.42;60.20;98013.78;5065374;28;20223;-80
2023/06/02 02:24:06;;;;;;;5.53;4.23;;;;;;;15.37;60.40;98018.69;5077359;28;20206;-80
2023/06/02 02:26:32;;;;;;;7.43;4.23;;;;;;;15.27;60.79;98023.97;5077417;28;20270;-81
2023/06/02 02:28:59;;;;;;;6.53;4.30;;;;;;;15.11;61.46;98017.50;5077192;28;20271;-81
2023/06/02 02:31:27;;;;;;;5.93;4.37;;;;;;;15.07;61.94;98022.25;5075772;28;20199;-81
2023/06/02 02:33:55;;;;;;;5.87;4.17;;;;;;;15.02;62.35;98023.66;5074138;28;20264;-80
2023/06/02 02:36:22;;;;;;;6.63;4.43;;;;;;;15.02;62.32;98026.31;5070990;28;20212;-81
2023/06/02 02:38:48;;;;;;;5.47;4.20;;;;;;;14.98;62.61;98022.22;5077569;28;20224;-80
2023/06/02 02:41:15;;;;;;;6.37;4.13;;;;;;;14.89;62.93;98023.00;5076973;28;20219;-81
2023/06/02 02:43:41;;;;;;;6.70;4.17;;;;;;;14.88;63.32;98030.19;5074630;28;20219;-81
2023/06/02 02:46:08;;;;;;;6.27;4.40;;;;;;;14.79;63.51;98033.63;5068095;28;20218;-81
2023/06/02 02:48:34;;;;;;;5.63;4.17;;;;;;;14.78;63.99;98033.78;5067009;28;20230;-81
2023/06/02 02:51:02;;;;;;;5.90;4.40;;;;;;;14.81;63.98;98030.84;5064769;28;20208;-81
2023/06/02 02:53:31;;;;;;;7.20;4.20;;;;;;;14.77;64.19;98026.75;5065784;28;20246;-81
2023/06/02 02:55:57;;;;;;;6.60;4.00;;;;;;;14.76;64.60;98027.75;5065786;28;20212;-80
2023/06/02 02:58:26;;;;;;;8.00;4.83;;;;;;;14.71;65.17;98033.47;5065956;28;20669;-81
2023/06/02 03:00:52;;;;;;;5.70;4.43;;;;;;;14.60;65.54;98030.91;5062979;28;20670;-81
2023/06/02 03:03:20;;;;;;;8.57;4.80;;;;;;;14.59;65.95;98036.34;5062810;28;20208;-81
2023/06/02 03:05:47;;;;;;;5.90;4.53;;;;;;;14.51;66.67;98038.81;5063151;28;20214;-81
2023/06/02 03:08:15;;;;;;;7.17;4.70;;;;;;;14.53;66.95;98037.72;5062428;28;20228;-81
2023/06/02 03:10:42;;;;;;;6.87;4.33;;;;;;;14.52;67.69;98045.81;5061616;28;20348;-81
2023/06/02 03:13:09;;;;;;;7.47;4.73;;;;;;;14.55;67.79;98041.09;5062057;28;20212;-81
2023/06/02 03:15:36;;;;;;;7.00;4.83;;;;;;;14.48;68.25;98050.56;5061739;28;20247;-81
2023/06/02 03:18:03;;;;;;;6.60;4.53;;;;;;;14.38;68.91;98049.69;5061645;28;20591;-81
2023/06/02 03:20:30;;;;;;;7.57;4.53;;;;;;;14.34;69.62;98061.56;5052617;28;20224;-81
2023/06/02 03:22:56;;;;;;;7.23;4.60;;;;;;;14.30;70.28;98062.78;5052271;28;20215;-81
2023/06/02 03:25:24;;;;;;;7.63;4.37;;;;;;;14.20;71.20;98061.91;5052674;28;20681;-81
2023/06/02 03:27:51;;;;;;;8.23;5.03;;;;;;;14.24;71.25;98062.47;5052521;28;20228;-81
2023/06/02 03:30:18;;;;;;;8.60;4.70;;;;;;;14.09;72.08;98063.72;5051478;28;20626;-81
2023/06/02 03:32:44;;;;;;;5.97;4.30;;;;;;;14.08;72.39;98057.59;5051553;28;20219;-81
2023/06/02 03:35:11;;;;;;;7.00;4.77;;;;;;;14.00;73.42;98064.50;5052166;28;20208;-81
2023/06/02 03:37:37;;;;;;;8.13;4.90;;;;;;;14.02;73.32;98066.06;5051711;28;20250;-81
2023/06/02 03:40:05;;;;;;;7.73;5.00;;;;;;;13.99;74.35;98070.81;5051054;28;20232;-81
2023/06/02 03:42:33;;;;;;;9.97;5.37;;;;;;;14.04;73.81;98071.22;5051884;28;20207;-81
2023/06/02 03:45:00;;;;;;;9.90;5.07;;;;;;;13.94;74.69;98070.34;5052019;28;20207;-81
2023/06/02 03:47:26;;;;;;;8.03;4.90;;;;;;;13.97;74.95;98062.09;5051531;28;20243;-81
2023/06/02 03:49:53;;;;;;;8.47;4.90;;;;;;;13.93;75.45;98069.47;5050836;28;20308;-81
2023/06/02 03:52:19;;;;;;;5.97;4.77;;;;;;;13.89;76.06;98067.22;5052139;28;20214;-81
2023/06/02 03:54:47;;;;;;;8.03;5.00;;;;;;;13.82;76.46;98071.34;5051930;28;20348;-81
2023/06/02 03:57:13;;;;;;;8.43;5.50;;;;;;;13.85;76.58;98071.09;5051590;28;20238;-81
2023/06/02 03:59:41;;;;;;;7.67;4.90;;;;;;;13.84;76.55;98074.72;5050724;28;20235;-81
2023/06/02 04:02:08;;;;;;;6.97;4.93;;;;;;;13.82;76.71;98071.34;5051761;28;20219;-81
2023/06/02 04:04:36;;;;;;;8.53;5.50;;;;;;;13.82;77.15;98072.19;5051370;28;20212;-81
2023/06/02 04:07:02;;;;;;;6.93;4.90;;;;;;;13.84;77.05;98077.38;5051476;28;20273;-81
2023/06/02 04:09:29;;;;;;;7.30;4.97;;;;;;;13.78;77.36;98064.59;5051008;28;20212;-81
2023/06/02 04:11:55;;;;;;;9.97;5.70;;;;;;;13.72;77.84;98070.41;5051516;28;20215;-82
2023/06/02 04:14:22;;;;;;;9.23;5.43;;;;;;;13.71;78.59;98076.72;5051691;28;20204;-82
2023/06/02 04:16:50;;;;;;;7.30;5.13;;;;;;;13.75;78.18;98073.66;5051323;28;20238;-82
2023/06/02 04:19:16;;;;;;;8.33;5.73;;;;;;;13.77;78.72;98078.84;5050372;28;20604;-81
2023/06/02 04:21:43;;;;;;;8.73;5.40;;;;;;;13.75;78.98;98083.47;5051789;28;20212;-82
2023/06/02 04:24:09;;;;;;;7.97;5.37;;;;;;;13.78;78.80;98085.84;5051271;28;20239;-81
2023/06/02 04:26:35;;;;;;;9.77;5.03;;;;;;;13.76;78.81;98087.81;5051681;28;20207;-81
2023/06/02 04:29:02;;;;;;;8.97;5.87;;;;;;;13.79;78.97;98093.69;5050925;28;20211;-81
2023/06/02 04:31:42;;;;;;;8.63;5.03;;;;;;;13.81;78.72;98085.63;5050544;28;20212;-81
2023/06/02 04:34:10;;;;;;;7.70;5.30;;;;;;;13.78;79.29;98092.03;5051235;28;20212;-81
2023/06/02 04:36:36;;;;;;;7.77;5.40;;;;;;;13.83;79.74;98100.47;5051019;28;20294;-81
2023/06/02 04:39:03;;;;;;;8.97;5.37;;;;;;;13.79;80.00;98098.16;5050963;28;20689;-81
2023/06/02 04:41:31;;;;;;;8.47;6.20;;;;;;;13.79;80.55;98103.47;5050757;28;20281;-81
2023/06/02 04:43:58;;;;;;;11.90;5.53;;;;;;;13.74;80.72;98111.00;5050973;28;20682;-81
2023/06/02 04:46:25;;;;;;;10.33;6.00;;;;;;;13.67;81.72;98108.00;5051434;28;20212;-81
2023/06/02 04:48:51;;;;;;;7.87;6.10;;;;;;;13.73;81.81;98111.94;5051175;28;20215;-81
2023/06/02 04:51:19;;;;;;;7.60;5.77;;;;;;;13.86;81.75;98109.97;5051156;28;20535;-82
2023/06/02 04:53:46;;;;;;;9.67;5.73;;;;;;;13.88;81.48;98108.88;5052750;28;20204;-81
2023/06/02 04:56:13;;;;;;;10.00;6.33;;;;;;;13.83;81.87;98118.19;5057514;28;20219;-81
2023/06/02 04:58:39;;;;;;;10.33;6.40;;;;;;;13.85;82.21;98130.38;5056426;28;20559;-82
2023/06/02 05:01:06;;;;;;;8.33;5.63;;;;;;;13.95;81.68;98125.16;5053986;28;20239;-81
2023/06/02 05:03:32;;;;;;;10.60;5.73;;;;;;;14.02;81.65;98111.25;5054816;28;20211;-81
2023/06/02 05:05:58;;;;;;;10.07;5.70;;;;;;;14.20;81.10;98109.75;5054720;28;20215;-82
2023/06/02 05:08:26;;;;;;;12.83;6.13;;;;;;;14.57;79.67;98107.44;5054515;28;20228;-81
2023/06/02 05:10:53;;;;;;;8.73;5.60;;;;;;;15.03;77.14;98103.34;5053950;28;20204;-81
2023/06/02 05:13:19;;;;;;;8.07;5.53;;;;;;;15.49;74.20;98092.16;5054432;28;20215;-81
2023/06/02 05:15:46;;;;;;;8.70;5.50;;;;;;;15.91;71.91;98082.94;5054490;28;20231;-82
2023/06/02 05:18:14;;;;;;;11.73;5.57;;;;;;;16.21;70.59;98087.16;5054702;28;20333;-82
2023/06/02 05:20:41;;;;;;;10.03;6.27;;;;;;;16.62;68.54;98080.63;5053719;28;20239;-82
2023/06/02 05:23:07;;;;;;;8.60;5.57;;;;;;;16.78;66.83;98080.88;5054491;28;20576;-81
2023/06/02 05:25:35;;;;;;;8.50;5.30;;;;;;;16.85;66.29;98082.84;5054308;28;20212;-81
2023/06/02 05:28:02;;;;;;;8.77;5.77;;;;;;;16.74;66.83;98091.00;5054408;28;20235;-81
2023/06/02 05:30:28;;;;;;;6.57;5.57;;;;;;;16.78;66.41;98095.09;5053429;28;20671;-81
2023/06/02 05:32:54;;;;;;;8.63;5.60;;;;;;;16.93;66.16;98085.59;5054513;28;20212;-81
2023/06/02 05:35:21;;;;;;;8.93;5.93;;;;;;;17.23;65.19;98069.31;5054371;28;20208;-82
2023/06/02 05:37:47;;;;;;;9.40;5.73;;;;;;;17.44;64.03;98075.25;5054173;28;20251;-81
2023/06/02 05:40:14;;;;;;;6.40;5.60;;;;;;;17.74;63.29;98076.75;5053083;28;20244;-81
2023/06/02 05:42:42;;;;;;;9.43;5.73;;;;;;;18.09;61.86;98066.91;5053839;28;20250;-81
2023/06/02 05:45:09;;;;;;;10.83;5.33;;;;;;;18.26;60.76;98068.72;5053971;28;20211;-81
2023/06/02 05:47:36;;;;;;;10.53;6.03;;;;;;;18.41;60.93;98066.38;5053814;28;20227;-81
2023/06/02 05:50:02;;;;;;;8.97;5.77;;;;;;;18.40;60.29;98062.84;5053266;28;20211;-81
2023/06/02 05:52:29;;;;;;;6.50;5.47;;;;;;;18.69;59.24;98060.69;5053846;28;20239;-76
2023/06/02 05:54:55;;;;;;;9.93;5.57;;;;;;;18.74;59.02;98054.88;5053507;28;20211;-76
2023/06/02 05:57:22;;;;;;;7.07;5.73;;;;;;;18.98;58.54;98053.16;5053709;28;20239;-76
2023/06/02 05:59:50;;;;;;;9.13;5.60;;;;;;;19.10;57.67;98054.56;5052947;28;20224;-76
2023/06/02 06:02:16;;;;;;;6.70;5.50;;;;;;;19.01;57.70;98063.56;5053888;28;20208;-76
2023/06/02 06:04:43;;;;;;;8.73;5.43;;;;;;;19.16;57.54;98063.78;5052734;28;20212;-76
2023/06/02 06:07:09;;;;;;;8.00;5.27;;;;;;;19.30;57.16;98058.69;5053179;28;20251;-76
2023/06/02 06:09:36;;;;;;;7.93;5.57;;;;;;;19.46;56.88;98049.88;5052722;28;20215;-77
2023/06/02 06:12:02;;;;;;;8.67;5.90;;;;;;;19.26;56.34;98049.28;5053323;28;20595;-75
2023/06/02 06:14:29;;;;;;;7.60;5.10;;;;;;;19.03;56.81;98058.88;5053014;28;20203;-76
2023/06/02 06:16:57;;;;;;;5.77;5.13;;;;;;;19.12;57.35;98057.91;5053491;28;20260;-77
2023/06/02 06:19:23;;;;;;;9.00;5.73;;;;;;;18.73;57.58;98061.22;5052699;28;20208;-76
2023/06/02 06:21:50;;;;;;;7.57;5.63;;;;;;;18.82;57.59;98065.63;5053193;28;20219;-76
2023/06/02 06:24:16;;;;;;;8.50;5.33;;;;;;;19.12;57.96;98074.00;5053567;28;20208;-76
2023/06/02 06:26:43;;;;;;;8.20;5.57;;;;;;;19.36;56.45;98068.78;5053571;28;20227;-76
2023/06/02 06:29:09;;;;;;;7.13;5.30;;;;;;;19.46;55.94;98066.81;5052575;28;20216;-76
2023/06/02 06:31:36;;;;;;;6.50;5.80;;;;;;;19.42;56.13;98075.31;5053016;28;20212;-76
2023/06/02 06:34:04;;;;;;;10.03;5.77;;;;;;;19.28;56.16;98062.53;5053139;28;20299;-76
2023/06/02 06:36:31;;;;;;;7.77;5.70;;;;;;;19.06;57.08;98079.13;5052746;28;20208;-75
2023/06/02 06:38:58;;;;;;;6.10;5.33;;;;;;;19.14;56.92;98076.53;5052746;28;20215;-75
2023/06/02 06:41:25;;;;;;;8.87;6.27;;;;;;;19.07;57.39;98081.66;5052094;28;20231;-74
2023/06/02 06:43:52;;;;;;;7.20;6.07;;;;;;;18.84;57.92;98085.88;5052723;28;20211;-75
2023/06/02 06:46:18;;;;;;;6.50;5.50;;;;;;;18.60;58.39;98083.03;5051788;28;20216;-75
2023/06/02 06:48:45;;;;;;;8.47;5.90;;;;;;;18.83;57.93;98083.38;5052514;28;20228;-75
2023/06/02 06:51:13;;;;;;;8.80;6.13;;;;;;;18.84;58.52;98093.91;5049638;28;20200;-74
2023/06/02 06:53:39;;;;;;;8.20;5.50;;;;;;;19.05;57.63;98093.53;5049938;28;20216;-74
2023/06/02 06:56:06;;;;;;;8.53;5.80;;;;;;;18.95;57.67;98092.81;5049619;28;20208;-73
2023/06/02 06:58:33;;;;;;;10.33;6.00;;;;;;;18.74;58.39;98098.56;5050535;28;20232;-76
2023/06/02 07:00:59;;;;;;;8.60;5.83;;;;;;;18.73;58.87;98110.28;5050817;28;20232;-76
2023/06/02 07:03:26;;;;;;;8.90;5.50;;;;;;;18.64;58.91;98113.00;5051726;28;20227;-76
2023/06/02 07:05:52;;;;;;;7.00;5.60;;;;;;;17.96;61.16;98124.44;5049047;28;20235;-76
2023/06/02 07:08:20;;;;;;;8.30;6.10;;;;;;;17.58;62.90;98130.03;5049601;28;20628;-76
2023/06/02 07:10:47;;;;;;;8.40;5.53;;;;;;;17.30;64.51;98142.53;5048991;28;20208;-76
2023/06/02 07:13:13;;;;;;;9.33;5.87;;;;;;;17.27;65.51;98142.81;5051503;28;20223;-76
2023/06/02 07:15:40;;;;;;;9.43;6.00;;;;;;;17.18;65.73;98153.56;5051947;28;20221;-75
2023/06/02 07:18:06;;;;;;;7.17;5.73;;;;;;;17.02;66.64;98151.47;5051531;28;20330;-76
2023/06/02 07:20:33;;;;;;;9.73;6.27;;;;;;;16.97;66.05;98143.06;5051295;28;20239;-76
2023/06/02 07:22:59;;;;;;;7.13;6.03;;;;;;;17.01;66.23;98149.78;5052233;28;20208;-76
2023/06/02 07:25:27;;;;;;;7.97;6.23;;;;;;;16.95;66.34;98146.88;5052094;28;20223;-76
2023/06/02 07:27:54;;;;;;;9.43;6.40;;;;;;;16.95;67.79;98155.72;5052009;28;20600;-76
2023/06/02 07:30:21;;;;;;;6.73;5.60;;;;;;;17.04;66.87;98146.84;5051023;28;20200;-76
2023/06/02 07:32:47;;;;;;;7.33;6.13;;;;;;;16.97;67.24;98142.22;5051908;28;20308;-75
2023/06/02 07:35:15;;;;;;;7.00;5.63;;;;;;;17.02;67.62;98143.47;5051946;28;20211;-77
2023/06/02 07:37:42;;;;;;;9.40;5.83;;;;;;;17.16;66.66;98135.00;5051987;28;20832;-77
2023/06/02 07:40:09;;;;;;;8.63;5.83;;;;;;;17.22;65.65;98134.41;5051127;28;20240;-76
2023/06/02 07:42:37;;;;;;;7.20;5.40;;;;;;;17.12;66.48;98133.59;5051805;28;20212;-77
2023/06/02 07:45:04;;;;;;;8.70;5.93;;;;;;;17.10;66.84;98138.25;5051963;28;20208;-77
2023/06/02 07:47:31;;;;;;;9.17;5.67;;;;;;;17.24;66.53;98143.09;5051615;28;20228;-81
2023/06/02 07:49:57;;;;;;;7.85;6.60;;;;;;;17.35;65.31;98134.91;5050984;28;20444;-77
2023/06/02 07:52:24;;;;;;;7.30;6.07;;;;;;;17.31;65.76;98133.50;5051867;28;20219;-77
2023/06/02 07:54:52;;;;;;;10.17;5.90;;;;;;;17.46;66.36;98137.44;5051607;28;20651;-74
2023/06/02 07:57:18;;;;;;;11.63;6.03;;;;;;;17.61;65.36;98129.75;5051388;28;20235;-85
2023/06/02 07:59:46;;;;;;;7.23;6.10;;;;;;;17.61;64.49;98125.22;5050817;28;20565;-84
2023/06/02 08:02:13;;;;;;;7.30;5.47;;;;;;;17.66;64.49;98122.09;5048682;28;20832;-85
2023/06/02 08:04:39;;;;;;;8.70;6.00;;;;;;;17.79;64.61;98128.78;5048814;28;20701;-77
2023/06/02 08:07:06;;;;;;;10.57;6.33;;;;;;;17.90;63.03;98115.19;5049078;28;20232;-78
2023/06/02 08:09:33;;;;;;;8.03;6.00;;;;;;;17.83;63.31;98124.81;5048100;28;20204;-81
2023/06/02 08:11:59;;;;;;;8.23;5.63;;;;;;;17.88;63.37;98119.88;5050448;28;20230;-79
2023/06/02 08:14:26;;;;;;;6.87;5.30;;;;;;;17.97;63.70;98129.63;5051022;28;20212;-79
2023/06/02 08:16:55;;;;;;;8.50;6.20;;;;;;;18.07;63.27;98122.41;5051570;28;20235;-81
2023/06/02 08:19:23;;;;;;;9.13;5.77;;;;;;;18.12;63.51;98130.81;5050869;28;20219;-77
2023/06/02 08:21:49;;;;;;;8.23;5.80;;;;;;;18.10;63.03;98114.03;5051465;28;20240;-82
2023/06/02 08:24:16;;;;;;;8.83;6.20;;;;;;;18.17;62.90;98109.75;5051762;28;20230;-81
2023/06/02 08:26:44;;;;;;;8.90;6.87;;;;;;;18.16;62.19;98116.13;5051736;28;20250;-81
2023/06/02 08:29:11;;;;;;;11.00;6.50;;;;;;;18.10;62.39;98116.72;5049842;28;20595;-81
2023/06/02 08:31:38;;;;;;;7.53;5.97;;;;;;;18.06;62.94;98118.03;5051623;28;20207;-81
2023/06/02 08:34:08;;;;;;;9.17;6.17;;;;;;;18.23;61.98;98117.16;5052244;28;20255;-84
2023/06/02 08:36:35;;;;;;;8.50;6.43;;;;;;;18.26;61.68;98111.53;5051196;28;20303;-81
2023/06/02 08:39:06;;;;;;;7.47;6.00;;;;;;;18.26;61.57;98108.84;5051131;28;20208;-81
2023/06/02 08:41:36;;;;;;;10.13;7.03;;;;;;;18.17;62.22;98117.78;5051397;28;20232;-82
2023/06/02 08:44:03;;;;;;;7.00;5.63;;;;;;;18.13;63.04;98119.09;5051691;28;20200;-81
2023/06/02 08:46:29;;;;;;;7.43;6.07;;;;;;;18.28;62.57;98117.56;5050912;28;20646;-79
2023/06/02 08:48:58;;;;;;;7.27;5.70;;;;;;;18.36;62.50;98112.28;5050551;28;20218;-80
2023/06/02 08:51:26;;;;;;;7.50;6.53;;;;;;;18.47;62.53;98120.09;5050232;28;20212;-80
2023/06/02 08:53:52;;;;;;;7.20;5.97;;;;;;;18.70;61.58;98110.56;5050941;28;20561;-80
2023/06/02 08:56:19;;;;;;;9.80;6.50;;;;;;;18.71;61.76;98114.91;5050932;28;20212;-80
2023/06/02 08:58:48;;;;;;;7.40;6.13;;;;;;;18.61;61.90;98111.53;5050739;28;20232;-78
2023/06/02 09:01:15;;;;;;;7.83;6.53;;;;;;;18.67;61.21;98110.91;5050336;28;20224;-80
2023/06/02 09:03:41;;;;;;;7.37;5.93;;;;;;;18.66;61.35;98122.56;5050207;28;20204;-79
2023/06/02 09:06:18;;;;;;;8.80;6.37;;;;;;;18.78;61.45;98118.66;5050544;28;20239;-79
2023/06/02 09:08:53;;;;;;;8.50;6.50;;;;;;;18.75;61.60;98118.97;5048005;28;20231;-80
2023/06/02 09:11:20;;;;;;;8.47;6.10;;;;;;;19.00;61.51;98120.81;5047132;28;20216;-81
2023/06/02 09:13:47;;;;;;;8.07;6.23;;;;;;;19.10;61.08;98112.66;5048007;28;20719;-77
2023/06/02 09:16:13;;;;;;;9.47;6.73;;;;;;;18.93;62.06;98114.41;5050416;28;20204;-77
2023/06/02 09:18:39;;;;;;;8.33;7.13;;;;;;;18.84;60.96;98109.97;5050247;28;20231;-78
2023/06/02 09:21:26;;;;;;;7.97;6.17;;;;;;;18.85;60.61;98110.84;5046642;28;20219;-78
2023/06/02 09:23:56;;;;;;;8.13;6.63;;;;;;;18.97;59.59;98113.06;5040717;28;20231;-78
2023/06/02 09:26:25;;;;;;;8.10;6.20;;;;;;;19.09;61.09;98119.84;5042945;28;20205;-78
2023/06/02 09:29:07;;;;;;;7.33;5.73;;;;;;;19.14;61.81;98130.09;5042445;28;20808;-79
2023/06/02 09:31:44;;;;;;;6.87;6.17;;;;;;;19.26;60.31;98123.50;5048383;28;20200;-79
2023/06/02 09:34:10;;;;;;;10.20;6.53;;;;;;;19.13;58.94;98098.97;5048808;28;20811;-78
2023/06/02 09:36:38;;;;;;;8.03;5.97;;;;;;;19.25;59.10;98114.63;5046202;28;20303;-78
2023/06/02 09:39:08;;;;;;;10.33;6.80;;;;;;;19.39;59.68;98103.28;5045862;28;20209;-77
2023/06/02 09:41:35;;;;;;;6.73;6.00;;;;;;;19.40;59.36;98104.97;5049846;28;20234;-77
2023/06/02 09:44:03;;;;;;;8.17;5.83;;;;;;;19.43;58.78;98093.91;5051957;28;20600;-77
2023/06/02 09:46:31;;;;;;;9.87;7.30;;;;;;;19.44;57.97;98090.22;5052736;28;20216;-77
2023/06/02 09:48:59;;;;;;;8.17;6.07;;;;;;;19.42;58.89;98086.03;5050637;28;20208;-77
2023/06/02 09:51:26;;;;;;;9.57;6.30;;;;;;;19.60;58.51;98094.81;5048812;28;20655;-76
2023/06/02 09:53:55;;;;;;;9.83;6.57;;;;;;;19.69;58.39;98094.66;5050043;28;20220;-77
2023/06/02 09:56:24;;;;;;;6.40;5.80;;;;;;;19.71;62.11;98127.53;5051084;28;20216;-76
2023/06/02 09:58:51;;;;;;;7.43;6.20;;;;;;;19.78;58.96;98104.44;5051275;28;20214;-77
2023/06/02 10:01:18;;;;;;;7.23;5.93;;;;;;;19.88;60.51;98115.84;5051338;28;20613;-77
2023/06/02 10:03:44;;;;;;;8.33;6.10;;;;;;;19.94;57.13;98085.66;5049817;28;20219;-77
2023/06/02 10:06:22;;;;;;;7.70;6.07;;;;;;;20.06;56.20;98070.13;5049200;28;20624;-78
2023/06/02 10:09:01;;;;;;;6.97;5.70;;;;;;;20.12;56.18;98081.03;5049305;28;20234;-78
2023/06/02 10:11:38;;;;;;;8.83;6.40;;;;;;;20.17;55.78;98073.31;5051566;28;20278;-78
2023/06/02 10:14:19;;;;;;;8.90;5.93;;;;;;;20.23;59.09;98099.50;5051738;28;20208;-77
2023/06/02 10:16:58;;;;;;;8.40;6.07;;;;;;;20.45;57.05;98082.72;5049583;28;20621;-76
2023/06/02 10:19:57;;;;;;;6.07;5.10;;;;;;;20.42;56.63;98083.06;5048478;28;20211;-76
2023/06/02 10:22:48;;;;;;;6.13;5.47;;;;;;;20.61;57.04;98082.69;5050173;28;20232;-77
2023/06/02 10:25:24;;;;;;;5.83;4.97;;;;;;;20.70;55.86;98080.84;5038262;28;20208;-76
2023/06/02 10:27:52;;;;;;;5.67;5.07;;;;;;;20.63;53.10;98047.63;5051996;28;20243;-77
2023/06/02 10:30:20;;;;;;;7.47;5.20;;;;;;;20.95;54.33;98069.06;5049501;28;20233;-77
2023/06/02 10:32:48;;;;;;;6.27;5.53;;;;;;;21.03;55.11;98072.56;5050062;28;20208;-77
2023/06/02 10:35:15;;;;;;;6.77;6.00;;;;;;;21.11;55.34;98074.41;5049902;28;20567;-77
2023/06/02 10:37:42;;;;;;;6.67;5.03;;;;;;;21.01;52.95;98046.88;5050280;28;20239;-77
2023/06/02 10:40:10;;;;;;;5.87;5.10;;;;;;;20.97;51.06;98024.91;5051640;28;20204;-79
2023/06/02 10:42:37;;;;;;;7.10;5.33;;;;;;;20.95;51.03;98020.72;5051646;28;20271;-77
2023/06/02 10:45:41;;;;;;;7.20;5.63;;;;;;;21.03;51.07;98024.22;5049276;28;20211;-76
2023/06/02 10:48:36;;;;;;;7.00;5.53;;;;;;;21.09;53.58;98050.38;5049452;28;20252;-76
2023/06/02 10:51:03;;;;;;;6.50;4.80;;;;;;;21.21;52.32;98040.13;5049175;28;20262;-76
2023/06/02 10:53:29;;;;;;;7.77;5.10;;;;;;;21.14;51.46;98020.28;5052202;28;20208;-76
2023/06/02 10:55:56;;;;;;;7.80;5.47;;;;;;;21.16;50.69;98016.44;5052269;28;20377;-76
2023/06/02 10:58:49;;;;;;;6.70;5.00;;;;;;;21.30;50.40;98021.09;5051866;28;20648;-75
2023/06/02 11:01:48;;;;;;;7.20;5.10;;;;;;;21.41;51.08;98023.38;5050661;28;20298;-75
2023/06/02 11:04:24;;;;;;;5.63;4.90;;;;;;;21.39;51.09;98030.78;5052143;28;20223;-76
2023/06/02 11:07:18;;;;;;;8.57;5.63;;;;;;;21.43;50.47;98021.34;5051535;28;20230;-79
2023/06/02 11:09:45;;;;;;;5.57;4.93;;;;;;;21.34;52.21;98038.53;5051361;28;20261;-79
2023/06/02 11:12:12;;;;;;;7.47;5.43;;;;;;;21.38;50.43;98012.97;5051602;28;20221;-77
2023/06/02 11:15:15;;;;;;;5.33;4.67;;;;;;;21.50;51.70;98033.06;5049958;28;20219;-77
2023/06/02 11:17:47;;;;;;;5.00;4.50;;;;;;;21.63;51.64;98030.66;5045586;28;20228;-76
2023/06/02 11:20:15;;;;;;;5.77;5.10;;;;;;;21.85;52.13;98043.34;5048828;28;20785;-76
2023/06/02 11:22:42;;;;;;;6.43;5.07;;;;;;;21.80;50.34;98017.94;5050799;28;20238;-76
2023/06/02 11:25:09;;;;;;;5.40;4.90;;;;;;;21.80;51.54;98023.34;5050126;28;20214;-77
2023/06/02 11:27:38;;;;;;;6.80;5.33;;;;;;;21.83;51.70;98033.75;5049330;28;20228;-76
2023/06/02 11:30:08;;;;;;;6.27;4.70;;;;;;;21.92;49.86;98008.44;5049494;28;20208;-76
2023/06/02 11:32:34;;;;;;;5.60;4.90;;;;;;;21.89;50.34;98009.66;5050990;28;20216;-76
2023/06/02 11:35:04;;;;;;;5.57;4.90;;;;;;;21.97;51.13;98028.44;5051317;28;20212;-76
2023/06/02 11:37:31;;;;;;;7.40;4.80;;;;;;;22.01;48.20;97983.97;5051164;28;20267;-76